Tomkins Cove, New York
Current Conditions -  °F | °C
As of 3:45 PM on Tuesday 21 Oct 2014 (Local Time) from KSWF Reporting Station
Haze Haze  
Wind Chill: 55°   Ceiling: 5000
Heat Index: 55°   Visibility: 6mi
Dew Point: 52°   Wind: 7mph
Humidity: 88%   Direction: 50°NE
Pressure: 29.88"   Gusts: NA
Location:  41.26°N, 73.98°W
Report Text: KSWF 211945Z 05006KT 6SM BR SCT009 BKN050 13/11 A2988
Loading
Personal Weather Stations






























Interactive Weather Map New forecast layout! Learn more

10-Day Weather Forecast

Advertisements
Track Severe Weather on mobile